EWG95M EDDK-LIPE
Flight info
| Callsign | EWG95M |
|---|---|
| Flight time | 1h 8m |
| Altitude | 34000 |
| Route | KUMIK2Q KUMIK Y854 BOMBI DCT GIGET DCT ABUKA/N0441F370 DCT LALMI DCT BATUB DCT TIRUL M738 NATAG DCT LORLO DCT UNTAD DCT NEGIK DCT ADOSA/N0366F190 M738 BENUS |
| Aircraft | A319/M-SDE2E3FGIJ1RWXYZ/EB1 |
Departure
| Time | 2026-05-04 16:22 |
|---|---|
| Airport | Cologne Bonn Airport (EDDK) |
Arrival
| Time | 2026-05-04 17:31 |
|---|---|
| Airport | Bologna Guglielmo Marconi Airport (LIPE) |
| Time | Latitude | Longitude | Altitude | Speed | Heading |
|---|---|---|---|---|---|
| 2026-05-04 16:00 | 50.87908 | 7.12494 | 234 ft | 0 kts | 288° |
| 2026-05-04 16:13 | 50.87893 | 7.12567 | 235 ft | 4 kts | 276° |
| 2026-05-04 16:14 | 50.87914 | 7.12625 | 237 ft | 0 kts | 198° |
| 2026-05-04 16:16 | 50.87910 | 7.12623 | 237 ft | 3 kts | 198° |
| 2026-05-04 16:16 | 50.87737 | 7.12745 | 232 ft | 18 kts | 138° |
| 2026-05-04 16:17 | 50.87512 | 7.13070 | 232 ft | 22 kts | 137° |
| 2026-05-04 16:18 | 50.87208 | 7.13512 | 236 ft | 18 kts | 137° |
| 2026-05-04 16:18 | 50.87114 | 7.13648 | 239 ft | 19 kts | 137° |
| 2026-05-04 16:19 | 50.86907 | 7.14134 | 255 ft | 18 kts | 100° |
| 2026-05-04 16:19 | 50.86872 | 7.14560 | 261 ft | 22 kts | 83° |
| 2026-05-04 16:20 | 50.87045 | 7.15161 | 274 ft | 21 kts | 64° |
| 2026-05-04 16:20 | 50.87055 | 7.15450 | 278 ft | 12 kts | 155° |
| 2026-05-04 16:21 | 50.86814 | 7.15023 | 274 ft | 76 kts | 244° |
| 2026-05-04 16:22 | 50.86051 | 7.12516 | 672 ft | 145 kts | 243° |
| 2026-05-04 16:22 | 50.84669 | 7.08081 | 2048 ft | 170 kts | 241° |
| 2026-05-04 16:23 | 50.81340 | 7.05958 | 3345 ft | 230 kts | 166° |
| 2026-05-04 16:24 | 50.76792 | 7.13290 | 6242 ft | 305 kts | 84° |
| 2026-05-04 16:25 | 50.77300 | 7.19761 | 8368 ft | 294 kts | 91° |
| 2026-05-04 16:26 | 50.77449 | 7.33314 | 10759 ft | 340 kts | 90° |
| 2026-05-04 16:26 | 50.77825 | 7.44764 | 12906 ft | 354 kts | 89° |
| 2026-05-04 16:27 | 50.78115 | 7.52633 | 14329 ft | 361 kts | 89° |
| 2026-05-04 16:28 | 50.75961 | 7.63584 | 16223 ft | 357 kts | 136° |
| 2026-05-04 16:28 | 50.70813 | 7.72268 | 18093 ft | 366 kts | 137° |
| 2026-05-04 16:29 | 50.63715 | 7.84228 | 20233 ft | 379 kts | 137° |
| 2026-05-04 16:30 | 50.58238 | 7.93426 | 21965 ft | 388 kts | 137° |
| 2026-05-04 16:31 | 50.54514 | 7.99667 | 23031 ft | 394 kts | 137° |
| 2026-05-04 16:31 | 50.48808 | 8.09180 | 24392 ft | 403 kts | 137° |
| 2026-05-04 16:32 | 50.42983 | 8.18853 | 25631 ft | 410 kts | 138° |
| 2026-05-04 16:33 | 50.39029 | 8.25408 | 26484 ft | 416 kts | 138° |
| 2026-05-04 16:33 | 50.35029 | 8.32028 | 27295 ft | 421 kts | 138° |
| 2026-05-04 16:34 | 50.30964 | 8.38725 | 28076 ft | 426 kts | 138° |
| 2026-05-04 16:34 | 50.28913 | 8.42093 | 28461 ft | 429 kts | 138° |
| 2026-05-04 16:35 | 50.22685 | 8.52304 | 29600 ft | 436 kts | 138° |
| 2026-05-04 16:35 | 50.16376 | 8.62624 | 30562 ft | 443 kts | 138° |
| 2026-05-04 16:36 | 50.14241 | 8.66099 | 30858 ft | 445 kts | 138° |
| 2026-05-04 16:36 | 50.09849 | 8.72913 | 31443 ft | 444 kts | 146° |
| 2026-05-04 16:37 | 50.04496 | 8.77332 | 32194 ft | 431 kts | 167° |
| 2026-05-04 16:37 | 50.01595 | 8.78311 | 32611 ft | 424 kts | 177° |
| 2026-05-04 16:37 | 49.95784 | 8.77973 | 33433 ft | 417 kts | 190° |
| 2026-05-04 16:38 | 49.90047 | 8.76775 | 33964 ft | 413 kts | 190° |
| 2026-05-04 16:39 | 49.76085 | 8.73900 | 33985 ft | 403 kts | 190° |
| 2026-05-04 16:40 | 49.70493 | 8.74529 | 33985 ft | 413 kts | 166° |
| 2026-05-04 16:40 | 49.65008 | 8.77246 | 33977 ft | 414 kts | 166° |
| 2026-05-04 16:41 | 49.51313 | 8.84149 | 33962 ft | 414 kts | 166° |
| 2026-05-04 16:43 | 49.37589 | 8.90979 | 33958 ft | 415 kts | 166° |
| 2026-05-04 16:43 | 49.29340 | 8.95063 | 33953 ft | 415 kts | 166° |
| 2026-05-04 16:45 | 49.12807 | 9.03216 | 33954 ft | 417 kts | 166° |
| 2026-05-04 16:46 | 48.99013 | 9.09953 | 33947 ft | 418 kts | 166° |
| 2026-05-04 16:47 | 48.88087 | 9.15276 | 33952 ft | 418 kts | 166° |
| 2026-05-04 16:48 | 48.77003 | 9.20650 | 33951 ft | 418 kts | 166° |
| 2026-05-04 16:49 | 48.66796 | 9.25572 | 33955 ft | 419 kts | 166° |
| 2026-05-04 16:50 | 48.55678 | 9.30911 | 33953 ft | 419 kts | 166° |
| 2026-05-04 16:51 | 48.47325 | 9.34898 | 33945 ft | 420 kts | 166° |
| 2026-05-04 16:52 | 48.36174 | 9.40214 | 33936 ft | 421 kts | 165° |
| 2026-05-04 16:53 | 48.27788 | 9.44213 | 33937 ft | 421 kts | 166° |
| 2026-05-04 16:54 | 48.16632 | 9.49471 | 33933 ft | 422 kts | 166° |
| 2026-05-04 16:55 | 48.00079 | 9.58264 | 33925 ft | 429 kts | 150° |
| 2026-05-04 16:56 | 47.87731 | 9.70892 | 33955 ft | 434 kts | 149° |
| 2026-05-04 16:57 | 47.80030 | 9.78704 | 33961 ft | 458 kts | 148° |
| 2026-05-04 16:58 | 47.69436 | 9.89456 | 33964 ft | 462 kts | 148° |
| 2026-05-04 17:00 | 47.53418 | 10.05571 | 33965 ft | 464 kts | 148° |
| 2026-05-04 17:01 | 47.40018 | 10.18952 | 33977 ft | 466 kts | 149° |
| 2026-05-04 17:02 | 47.29244 | 10.29658 | 34004 ft | 468 kts | 149° |
| 2026-05-04 17:03 | 47.21118 | 10.37715 | 34015 ft | 469 kts | 148° |
| 2026-05-04 17:03 | 47.12974 | 10.45759 | 34019 ft | 471 kts | 149° |
| 2026-05-04 17:04 | 47.01551 | 10.54769 | 34016 ft | 463 kts | 166° |
| 2026-05-04 17:05 | 46.89198 | 10.60333 | 34029 ft | 465 kts | 166° |
| 2026-05-04 17:06 | 46.79912 | 10.64527 | 34049 ft | 466 kts | 166° |
| 2026-05-04 17:07 | 46.71652 | 10.68223 | 34079 ft | 466 kts | 168° |
| 2026-05-04 17:07 | 46.64301 | 10.70810 | 34100 ft | 465 kts | 172° |
| 2026-05-04 17:08 | 46.54796 | 10.73649 | 34103 ft | 465 kts | 172° |
| 2026-05-04 17:09 | 46.48499 | 10.75655 | 34127 ft | 467 kts | 171° |
| 2026-05-04 17:09 | 46.42161 | 10.77741 | 34137 ft | 468 kts | 171° |
| 2026-05-04 17:10 | 46.26255 | 10.82907 | 34167 ft | 470 kts | 171° |
| 2026-05-04 17:11 | 46.19872 | 10.84961 | 34167 ft | 470 kts | 171° |
| 2026-05-04 17:12 | 46.10287 | 10.88046 | 34146 ft | 470 kts | 171° |
| 2026-05-04 17:13 | 45.94256 | 10.93178 | 34137 ft | 473 kts | 171° |
| 2026-05-04 17:14 | 45.81472 | 10.97240 | 34139 ft | 468 kts | 172° |
| 2026-05-04 17:14 | 45.75119 | 10.99256 | 33857 ft | 466 kts | 171° |
| 2026-05-04 17:15 | 45.71953 | 11.00261 | 33570 ft | 466 kts | 171° |
| 2026-05-04 17:15 | 45.65629 | 11.02266 | 32562 ft | 468 kts | 171° |
| 2026-05-04 17:16 | 45.59199 | 11.04093 | 30592 ft | 468 kts | 172° |
| 2026-05-04 17:16 | 45.49558 | 11.06291 | 27202 ft | 471 kts | 173° |
| 2026-05-04 17:17 | 45.46343 | 11.07024 | 25971 ft | 476 kts | 172° |
| 2026-05-04 17:17 | 45.36856 | 11.09310 | 23217 ft | 444 kts | 171° |
| 2026-05-04 17:18 | 45.33819 | 11.10054 | 22396 ft | 440 kts | 172° |
| 2026-05-04 17:18 | 45.27853 | 11.11499 | 20875 ft | 430 kts | 172° |
| 2026-05-04 17:19 | 45.22016 | 11.12899 | 19341 ft | 420 kts | 172° |
| 2026-05-04 17:19 | 45.16387 | 11.12551 | 18221 ft | 393 kts | 194° |
| 2026-05-04 17:20 | 45.11297 | 11.10891 | 17157 ft | 358 kts | 194° |
| 2026-05-04 17:20 | 45.06627 | 11.09356 | 16140 ft | 332 kts | 194° |
| 2026-05-04 17:20 | 45.04412 | 11.08626 | 15646 ft | 321 kts | 194° |
| 2026-05-04 17:21 | 45.00172 | 11.07230 | 14679 ft | 305 kts | 194° |
| 2026-05-04 17:21 | 44.96100 | 11.05882 | 13654 ft | 297 kts | 194° |
| 2026-05-04 17:22 | 44.94098 | 11.05216 | 13059 ft | 294 kts | 194° |
| 2026-05-04 17:22 | 44.92116 | 11.04555 | 12479 ft | 291 kts | 194° |
| 2026-05-04 17:23 | 44.86360 | 11.02611 | 10352 ft | 280 kts | 194° |
| 2026-05-04 17:23 | 44.84481 | 11.01965 | 9709 ft | 277 kts | 194° |
| 2026-05-04 17:23 | 44.80773 | 11.00679 | 8359 ft | 272 kts | 194° |
| 2026-05-04 17:24 | 44.78945 | 11.00038 | 7689 ft | 270 kts | 194° |
| 2026-05-04 17:24 | 44.73604 | 10.98801 | 6119 ft | 253 kts | 167° |
| 2026-05-04 17:25 | 44.72021 | 10.99805 | 5611 ft | 249 kts | 145° |
| 2026-05-04 17:25 | 44.69240 | 11.02590 | 4658 ft | 240 kts | 144° |
| 2026-05-04 17:26 | 44.66612 | 11.05209 | 3979 ft | 222 kts | 144° |
| 2026-05-04 17:26 | 44.62883 | 11.08912 | 3142 ft | 216 kts | 144° |
| 2026-05-04 17:27 | 44.60557 | 11.11219 | 2609 ft | 198 kts | 144° |
| 2026-05-04 17:27 | 44.58860 | 11.14034 | 2239 ft | 184 kts | 117° |
| 2026-05-04 17:28 | 44.57738 | 11.17174 | 1774 ft | 178 kts | 117° |
| 2026-05-04 17:29 | 44.56286 | 11.21254 | 1089 ft | 137 kts | 117° |
| 2026-05-04 17:29 | 44.55178 | 11.24335 | 654 ft | 131 kts | 120° |
| 2026-05-04 17:30 | 44.53960 | 11.27717 | 177 ft | 129 kts | 121° |
| 2026-05-04 17:31 | 44.53343 | 11.29429 | 128 ft | 45 kts | 117° |
| 2026-05-04 17:31 | 44.53075 | 11.29762 | 126 ft | 0 kts | 148° |
| 2026-05-04 17:33 | 44.53067 | 11.29769 | 128 ft | 4 kts | 148° |
| 2026-05-04 17:33 | 44.53025 | 11.29771 | 130 ft | 8 kts | 208° |
| 2026-05-04 17:34 | 44.52995 | 11.29575 | 130 ft | 8 kts | 205° |
| 2026-05-04 17:34 | 44.52981 | 11.29566 | 129 ft | 0 kts | 206° |